createdAt,value
2019-05-12T00:00:28.900Z,11.30
2019-05-12T00:01:30.051Z,11.30
2019-05-12T00:02:31.072Z,11.30
2019-05-12T00:03:32.084Z,11.30
2019-05-12T00:04:33.093Z,11.40
2019-05-12T00:05:34.144Z,11.40
2019-05-12T00:06:35.136Z,11.40
2019-05-12T00:07:38.147Z,11.40
2019-05-12T00:08:39.172Z,11.40
2019-05-12T00:09:40.180Z,11.40
2019-05-12T00:10:41.213Z,11.40
2019-05-12T00:11:42.204Z,11.40
2019-05-12T00:12:43.224Z,11.40
2019-05-12T00:13:44.231Z,11.40
2019-05-12T00:14:45.243Z,11.40
2019-05-12T00:15:47.675Z,11.40
2019-05-12T00:16:49.210Z,11.40
2019-05-12T00:17:50.337Z,11.40
2019-05-12T00:18:51.343Z,11.40
2019-05-12T00:19:52.441Z,11.40
2019-05-12T00:20:53.536Z,11.40
2019-05-12T00:21:54.545Z,11.40
2019-05-12T00:23:00.231Z,11.40
2019-05-12T00:24:10.174Z,11.40
2019-05-12T00:25:11.188Z,11.50
2019-05-12T00:26:12.488Z,11.50
2019-05-12T00:27:17.710Z,11.50
2019-05-12T00:28:18.342Z,11.40
2019-05-12T00:29:19.347Z,11.40
2019-05-12T00:30:38.786Z,11.50
2019-05-12T00:31:40.093Z,11.40
2019-05-12T00:32:41.107Z,11.50
2019-05-12T00:33:42.219Z,11.50
2019-05-12T00:34:43.233Z,11.50
2019-05-12T00:35:44.240Z,11.50
2019-05-12T00:36:45.252Z,11.50
2019-05-12T00:37:48.550Z,11.50
2019-05-12T00:38:49.180Z,11.50
2019-05-12T00:39:50.196Z,11.40
2019-05-12T00:40:51.216Z,11.50
2019-05-12T00:41:52.221Z,11.40
2019-05-12T00:42:53.240Z,11.40
2019-05-12T00:43:54.293Z,11.40
2019-05-12T00:44:55.321Z,11.40
2019-05-12T00:45:58.512Z,11.40
2019-05-12T00:46:59.257Z,11.40
2019-05-12T00:48:00.275Z,11.40
2019-05-12T00:49:01.295Z,11.40
2019-05-12T00:50:04.108Z,11.50
2019-05-12T00:51:07.588Z,11.50
2019-05-12T00:52:08.158Z,11.50
2019-05-12T00:53:09.595Z,11.50
2019-05-12T00:54:10.759Z,11.40
2019-05-12T00:55:11.780Z,11.60
2019-05-12T00:56:12.796Z,11.40
2019-05-12T00:57:13.807Z,11.40
2019-05-12T00:58:14.820Z,11.50
2019-05-12T00:59:15.831Z,11.50
2019-05-12T01:00:19.248Z,11.50
2019-05-12T01:01:20.268Z,11.40
2019-05-12T01:02:21.284Z,11.40
2019-05-12T01:03:22.306Z,11.40
2019-05-12T01:04:23.312Z,11.50
2019-05-12T01:05:24.320Z,11.50
2019-05-12T01:06:25.333Z,11.50
2019-05-12T01:07:27.768Z,11.50
2019-05-12T01:08:29.176Z,11.50
2019-05-12T01:09:30.179Z,11.50
2019-05-12T01:10:31.731Z,11.50
2019-05-12T01:11:32.752Z,11.50
2019-05-12T01:12:33.761Z,11.50
2019-05-12T01:13:34.784Z,11.40
2019-05-12T01:14:35.793Z,11.40
2019-05-12T01:15:37.779Z,11.50
2019-05-12T01:16:39.220Z,11.50
2019-05-12T01:17:40.501Z,11.50
2019-05-12T01:18:41.660Z,11.50
2019-05-12T01:19:42.668Z,11.50
2019-05-12T01:20:43.676Z,11.50
2019-05-12T01:21:44.683Z,11.50
2019-05-12T01:22:45.691Z,11.50
2019-05-12T01:23:56.253Z,11.60
2019-05-12T01:24:49.820Z,11.60
2019-05-12T01:25:51.017Z,11.60
2019-05-12T01:26:52.042Z,11.60
2019-05-12T01:27:53.058Z,11.60
2019-05-12T01:28:54.073Z,11.60
2019-05-12T01:29:55.087Z,11.60
2019-05-12T01:30:58.276Z,11.60
2019-05-12T01:32:01.331Z,11.60
2019-05-12T01:33:02.373Z,11.60
2019-05-12T01:34:03.468Z,11.60
2019-05-12T01:35:08.079Z,11.60
2019-05-12T01:36:09.393Z,11.60
2019-05-12T01:37:22.457Z,11.60
2019-05-12T01:38:23.474Z,11.60
2019-05-12T01:39:24.494Z,11.50
2019-05-12T01:40:28.233Z,11.50
2019-05-12T01:41:28.801Z,11.50
2019-05-12T01:42:29.853Z,11.50
2019-05-12T01:43:30.856Z,11.50
2019-05-12T01:44:31.876Z,11.50
2019-05-12T01:45:32.880Z,11.50
2019-05-12T01:46:34.245Z,11.50
2019-05-12T01:47:35.349Z,11.40
2019-05-12T01:48:37.761Z,11.50
2019-05-12T01:49:38.981Z,11.50
2019-05-12T01:50:39.996Z,11.50
2019-05-12T01:51:41.005Z,11.50
2019-05-12T01:52:42.016Z,11.50
2019-05-12T01:53:43.037Z,11.50
2019-05-12T01:54:44.056Z,11.50
2019-05-12T01:55:45.297Z,11.50
2019-05-12T01:56:48.372Z,11.50
2019-05-12T01:57:49.428Z,11.50
2019-05-12T01:58:50.445Z,11.50
2019-05-12T01:59:51.450Z,11.50
2019-05-12T02:00:52.456Z,11.30
2019-05-12T02:01:53.467Z,11.30
2019-05-12T02:02:54.476Z,11.30
2019-05-12T02:03:55.491Z,11.30
2019-05-12T02:05:01.344Z,11.30
2019-05-12T02:06:02.450Z,11.30
2019-05-12T02:07:05.357Z,11.20
2019-05-12T02:08:09.731Z,11.20
2019-05-12T02:09:15.658Z,11.20
2019-05-12T02:10:17.968Z,11.20
2019-05-12T02:11:30.963Z,11.20
2019-05-12T02:12:31.982Z,11.10
2019-05-12T02:13:32.993Z,11.10
2019-05-12T02:14:34.017Z,11.10
2019-05-12T02:15:35.018Z,11.10
2019-05-12T02:16:38.456Z,11.10
2019-05-12T02:17:39.304Z,11.10
2019-05-12T02:18:40.684Z,11.10
2019-05-12T02:19:41.705Z,11.10
2019-05-12T02:20:42.724Z,11.00
2019-05-12T02:21:43.735Z,11.00
2019-05-12T02:22:45.045Z,11.00
2019-05-12T02:23:47.739Z,11.00
2019-05-12T02:24:49.123Z,11.00
2019-05-12T02:25:50.127Z,11.00
2019-05-12T02:26:51.353Z,11.00
2019-05-12T02:27:52.356Z,11.00
2019-05-12T02:28:53.364Z,11.00
2019-05-12T02:29:54.386Z,11.00
2019-05-12T02:30:58.748Z,11.10
2019-05-12T02:31:58.921Z,11.10
2019-05-12T02:33:00.208Z,11.10
2019-05-12T02:34:01.221Z,11.10
2019-05-12T02:35:05.772Z,11.00
2019-05-12T02:36:07.078Z,11.10
2019-05-12T02:37:08.090Z,11.00
2019-05-12T02:38:09.098Z,11.00
2019-05-12T02:39:10.113Z,11.00
2019-05-12T02:40:14.906Z,11.00
2019-05-12T02:41:15.551Z,11.00
2019-05-12T02:42:16.841Z,11.00
2019-05-12T02:43:17.861Z,11.00
2019-05-12T02:44:18.882Z,11.00
2019-05-12T02:45:19.992Z,11.00
2019-05-12T02:46:21.017Z,11.00
2019-05-12T02:47:24.108Z,11.00
2019-05-12T02:48:25.039Z,11.00
2019-05-12T02:49:26.562Z,11.00
2019-05-12T02:50:35.361Z,11.00
2019-05-12T02:51:36.168Z,11.00
2019-05-12T02:52:37.185Z,11.00
2019-05-12T02:53:38.188Z,10.90
2019-05-12T02:54:51.942Z,10.90
2019-05-12T02:55:44.989Z,10.90
2019-05-12T02:56:46.440Z,10.90
2019-05-12T02:57:49.657Z,10.90
2019-05-12T02:58:54.307Z,10.80
2019-05-12T02:59:57.385Z,10.80
2019-05-12T03:00:59.106Z,10.80
2019-05-12T03:02:00.201Z,10.90
2019-05-12T03:03:05.436Z,10.80
2019-05-12T03:04:08.724Z,10.80
2019-05-12T03:05:09.962Z,10.80
2019-05-12T03:06:14.832Z,10.80
2019-05-12T03:07:15.568Z,10.80
2019-05-12T03:08:20.498Z,10.80
2019-05-12T03:09:24.158Z,10.90
2019-05-12T03:10:25.294Z,10.80
2019-05-12T03:11:27.035Z,10.80
2019-05-12T03:12:28.038Z,10.80
2019-05-12T03:13:29.051Z,10.80
2019-05-12T03:14:30.070Z,10.80
2019-05-12T03:15:31.085Z,10.70
2019-05-12T03:16:34.913Z,10.70
2019-05-12T03:17:35.726Z,10.70
2019-05-12T03:18:36.917Z,10.60
2019-05-12T03:19:37.926Z,10.60
2019-05-12T03:20:38.946Z,10.60
2019-05-12T03:21:39.953Z,10.60
2019-05-12T03:22:40.955Z,10.60
2019-05-12T03:23:44.682Z,10.70
2019-05-12T03:24:45.052Z,10.70
2019-05-12T03:25:46.208Z,10.70
2019-05-12T03:26:47.244Z,10.70
2019-05-12T03:27:48.333Z,10.70
2019-05-12T03:28:49.540Z,10.70
2019-05-12T03:29:50.573Z,10.70
2019-05-12T03:30:56.955Z,10.70
2019-05-12T03:31:57.063Z,10.70
2019-05-12T03:32:58.557Z,10.70
2019-05-12T03:34:00.731Z,10.70
2019-05-12T03:35:08.170Z,10.70
2019-05-12T03:36:09.213Z,10.70
2019-05-12T03:37:08.971Z,10.70
2019-05-12T03:38:10.212Z,10.70
2019-05-12T03:39:11.234Z,10.70
2019-05-12T03:40:14.447Z,10.80
2019-05-12T03:41:15.748Z,10.80
2019-05-12T03:42:16.776Z,10.80
2019-05-12T03:43:18.101Z,10.80
2019-05-12T03:44:19.131Z,10.80
2019-05-12T03:45:20.136Z,10.80
2019-05-12T03:46:24.529Z,10.80
2019-05-12T03:47:25.088Z,10.80
2019-05-12T03:48:26.379Z,10.80
2019-05-12T03:49:27.389Z,10.80
2019-05-12T03:50:28.404Z,10.80
2019-05-12T03:51:29.417Z,10.80
2019-05-12T03:52:30.427Z,10.80
2019-05-12T03:53:34.931Z,10.80
2019-05-12T03:54:35.014Z,10.80
2019-05-12T03:55:41.483Z,10.80
2019-05-12T03:56:39.202Z,10.80
2019-05-12T03:57:40.405Z,10.80
2019-05-12T03:58:44.980Z,10.80
2019-05-12T03:59:45.091Z,10.80
2019-05-12T04:00:46.268Z,10.90
2019-05-12T04:01:47.274Z,10.90
2019-05-12T04:02:48.281Z,10.80
2019-05-12T04:03:49.290Z,10.80
2019-05-12T04:04:50.297Z,10.80
2019-05-12T04:05:51.317Z,10.80
2019-05-12T04:06:54.374Z,10.80
2019-05-12T04:07:55.242Z,10.80
2019-05-12T04:08:59.938Z,10.80
2019-05-12T04:09:59.172Z,10.80
2019-05-12T04:11:00.190Z,10.80
2019-05-12T04:12:01.195Z,10.70
2019-05-12T04:13:04.502Z,10.70
2019-05-12T04:14:05.675Z,10.70
2019-05-12T04:15:07.436Z,10.70
2019-05-12T04:16:08.444Z,10.70
2019-05-12T04:17:09.505Z,10.70
2019-05-12T04:18:10.595Z,10.70
2019-05-12T04:19:14.617Z,10.60
2019-05-12T04:20:15.460Z,10.60
2019-05-12T04:21:16.634Z,10.50
2019-05-12T04:22:17.632Z,10.50
2019-05-12T04:23:18.649Z,10.50
2019-05-12T04:24:19.660Z,10.40
2019-05-12T04:25:20.664Z,10.40
2019-05-12T04:26:25.077Z,10.40
2019-05-12T04:27:25.311Z,10.40
2019-05-12T04:28:26.725Z,10.40
2019-05-12T04:29:27.730Z,10.40
2019-05-12T04:30:28.744Z,10.50
2019-05-12T04:31:29.756Z,10.50
2019-05-12T04:32:30.765Z,10.40
2019-05-12T04:33:34.499Z,10.40
2019-05-12T04:34:34.697Z,10.40
2019-05-12T04:35:36.104Z,10.40
2019-05-12T04:36:37.229Z,10.40
2019-05-12T04:37:38.244Z,10.40
2019-05-12T04:38:39.548Z,10.50
2019-05-12T04:39:40.655Z,10.40
2019-05-12T04:40:44.735Z,10.40
2019-05-12T04:41:44.901Z,10.40
2019-05-12T04:42:46.096Z,10.30
2019-05-12T04:43:47.101Z,10.40
2019-05-12T04:44:48.118Z,10.40
2019-05-12T04:45:49.125Z,10.40
2019-05-12T04:46:50.143Z,10.40
2019-05-12T04:47:51.156Z,10.40
2019-05-12T04:48:54.571Z,10.40
2019-05-12T04:49:55.076Z,10.40
2019-05-12T04:50:56.087Z,10.50
2019-05-12T04:51:57.118Z,10.40
2019-05-12T04:52:58.113Z,10.40
2019-05-12T04:53:59.201Z,10.40
2019-05-12T04:55:00.207Z,10.50
2019-05-12T04:56:10.821Z,10.50
2019-05-12T04:57:04.282Z,10.50
2019-05-12T04:58:05.673Z,10.60
2019-05-12T04:59:06.969Z,10.50
2019-05-12T05:00:08.377Z,10.50
2019-05-12T05:01:09.375Z,10.40
2019-05-12T05:02:10.396Z,10.40
2019-05-12T05:03:13.892Z,10.40
2019-05-12T05:04:15.493Z,10.30
2019-05-12T05:05:16.953Z,10.30
2019-05-12T05:06:17.958Z,10.40
2019-05-12T05:07:18.971Z,10.40
2019-05-12T05:08:20.223Z,10.40
2019-05-12T05:09:24.373Z,10.40
2019-05-12T05:10:25.058Z,10.40
2019-05-12T05:11:26.341Z,10.40
2019-05-12T05:12:27.368Z,10.50
2019-05-12T05:13:28.369Z,10.50
2019-05-12T05:14:29.380Z,10.50
2019-05-12T05:15:30.398Z,10.50
2019-05-12T05:16:34.368Z,10.50
2019-05-12T05:17:34.926Z,10.50
2019-05-12T05:18:36.069Z,10.50
2019-05-12T05:19:37.077Z,10.60
2019-05-12T05:20:38.086Z,10.60
2019-05-12T05:21:39.100Z,10.60
2019-05-12T05:22:40.118Z,10.60
2019-05-12T05:23:41.121Z,10.60
2019-05-12T05:24:44.272Z,10.60
2019-05-12T05:25:45.050Z,10.60
2019-05-12T05:26:46.064Z,10.60
2019-05-12T05:27:47.088Z,10.60
2019-05-12T05:28:48.106Z,10.60
2019-05-12T05:29:49.120Z,10.60
2019-05-12T05:30:50.165Z,10.60
2019-05-12T05:31:53.278Z,10.50
2019-05-12T05:32:54.157Z,10.50
2019-05-12T05:33:55.168Z,10.50
2019-05-12T05:34:57.915Z,10.50
2019-05-12T05:35:59.088Z,10.50
2019-05-12T05:37:01.637Z,10.50
2019-05-12T05:38:04.489Z,10.50
2019-05-12T05:39:06.159Z,10.60
2019-05-12T05:40:07.565Z,10.50
2019-05-12T05:41:10.603Z,10.50
2019-05-12T05:42:13.470Z,10.50
2019-05-12T05:43:18.557Z,10.40
2019-05-12T05:44:17.332Z,10.40
2019-05-12T05:45:23.434Z,10.40
2019-05-12T05:46:21.292Z,10.40
2019-05-12T05:47:25.657Z,10.40
2019-05-12T05:48:25.239Z,10.40
2019-05-12T05:49:26.249Z,10.30
2019-05-12T05:50:29.488Z,10.30
2019-05-12T05:51:30.173Z,10.30
2019-05-12T05:52:37.021Z,10.30
2019-05-12T05:53:34.128Z,10.30
2019-05-12T05:54:36.397Z,10.20
2019-05-12T05:55:38.082Z,10.20
2019-05-12T05:56:43.177Z,10.20
2019-05-12T05:57:44.198Z,10.20
2019-05-12T05:58:47.184Z,10.20
2019-05-12T05:59:47.855Z,10.20
2019-05-12T06:00:48.887Z,10.30
2019-05-12T06:01:54.297Z,10.20
2019-05-12T06:02:54.560Z,10.20
2019-05-12T06:03:58.283Z,10.20
2019-05-12T06:04:58.661Z,10.20
2019-05-12T06:06:01.592Z,10.20
2019-05-12T06:07:04.114Z,10.20
2019-05-12T06:08:09.496Z,10.20
2019-05-12T06:09:08.176Z,10.20
2019-05-12T06:10:09.992Z,10.20
2019-05-12T06:11:14.842Z,10.20
2019-05-12T06:12:13.931Z,10.30
2019-05-12T06:13:14.949Z,10.30
2019-05-12T06:14:16.356Z,10.30
2019-05-12T06:15:17.472Z,10.30
2019-05-12T06:16:20.607Z,10.40
2019-05-12T06:17:23.526Z,10.40
2019-05-12T06:18:24.345Z,10.40
2019-05-12T06:19:26.262Z,10.40
2019-05-12T06:20:27.520Z,10.40
2019-05-12T06:21:29.024Z,10.40
2019-05-12T06:22:31.448Z,10.40
2019-05-12T06:23:34.892Z,10.40
2019-05-12T06:24:35.672Z,10.40
2019-05-12T06:25:46.338Z,10.50
2019-05-12T06:26:52.907Z,10.50
2019-05-12T06:27:44.289Z,10.50
2019-05-12T06:28:45.452Z,10.60
2019-05-12T06:29:46.460Z,10.50
2019-05-12T06:30:50.124Z,10.60
2019-05-12T06:31:50.422Z,10.60
2019-05-12T06:32:52.438Z,10.60
2019-05-12T06:33:54.352Z,10.60
2019-05-12T06:34:59.785Z,10.60
2019-05-12T06:35:58.580Z,10.70
2019-05-12T06:37:05.068Z,10.70
2019-05-12T06:38:04.962Z,10.70
2019-05-12T06:39:10.441Z,10.70
2019-05-12T06:40:09.884Z,10.70
2019-05-12T06:41:12.410Z,10.70
2019-05-12T06:42:16.765Z,10.70
2019-05-12T06:43:16.757Z,10.70
2019-05-12T06:44:19.550Z,10.70
2019-05-12T06:45:20.683Z,10.80
2019-05-12T06:46:23.641Z,10.80
2019-05-12T06:47:25.125Z,10.80
2019-05-12T06:48:30.181Z,10.80
2019-05-12T06:49:29.327Z,10.80
2019-05-12T06:50:36.478Z,10.80
2019-05-12T06:51:33.861Z,10.90
2019-05-12T06:52:38.706Z,10.90
2019-05-12T06:53:38.100Z,10.90
2019-05-12T06:54:44.557Z,10.90
2019-05-12T06:55:43.272Z,10.90
2019-05-12T06:56:44.440Z,11.00
2019-05-12T06:57:50.012Z,10.90
2019-05-12T06:58:48.371Z,11.00
2019-05-12T06:59:51.446Z,11.00
2019-05-12T07:00:54.064Z,11.00
2019-05-12T07:02:00.346Z,11.00
2019-05-12T07:02:58.059Z,11.00
2019-05-12T07:04:00.662Z,11.00
2019-05-12T07:05:04.335Z,11.00
2019-05-12T07:06:09.094Z,11.10
2019-05-12T07:07:08.629Z,11.10
2019-05-12T07:08:09.677Z,11.10
2019-05-12T07:09:16.395Z,11.20
2019-05-12T07:10:35.054Z,11.20
2019-05-12T07:11:16.634Z,11.20
2019-05-12T07:12:17.644Z,11.20
2019-05-12T07:13:23.362Z,11.30
2019-05-12T07:14:26.356Z,11.30
2019-05-12T07:15:29.270Z,11.40
2019-05-12T07:16:30.223Z,11.50
2019-05-12T07:17:49.851Z,11.50
2019-05-12T07:18:50.185Z,11.50
2019-05-12T07:19:54.821Z,11.50
2019-05-12T07:20:54.105Z,11.50
2019-05-12T07:21:58.813Z,11.50
2019-05-12T07:22:58.020Z,11.50
2019-05-12T07:24:00.488Z,11.50
2019-05-12T07:25:04.483Z,11.40
2019-05-12T07:26:17.574Z,11.40
2019-05-12T07:27:09.444Z,11.40
2019-05-12T07:28:10.628Z,11.40
2019-05-12T07:29:13.399Z,11.40
2019-05-12T07:30:18.360Z,11.30
2019-05-12T07:31:19.468Z,11.30
2019-05-12T07:32:22.325Z,11.30
2019-05-12T07:33:24.422Z,11.20
2019-05-12T07:34:25.553Z,11.20
2019-05-12T07:35:26.761Z,11.30
2019-05-12T07:36:27.871Z,11.30
2019-05-12T07:37:33.992Z,11.30
2019-05-12T07:38:36.632Z,11.30
2019-05-12T07:39:47.805Z,11.30
2019-05-12T07:40:44.323Z,11.30
2019-05-12T07:41:51.028Z,11.30
2019-05-12T07:42:51.175Z,11.30
2019-05-12T07:43:59.041Z,11.40
2019-05-12T07:44:58.128Z,11.40
2019-05-12T07:46:02.354Z,11.50
2019-05-12T07:47:03.620Z,11.60
2019-05-12T07:48:08.510Z,11.70
2019-05-12T07:49:07.744Z,11.70
2019-05-12T07:50:09.994Z,11.70
2019-05-12T07:51:13.781Z,11.60
2019-05-12T07:52:14.909Z,11.60
2019-05-12T07:53:15.915Z,11.60
2019-05-12T07:54:16.951Z,11.60
2019-05-12T07:55:17.960Z,11.60
2019-05-12T07:56:19.512Z,11.60
2019-05-12T07:57:24.068Z,11.70
2019-05-12T07:58:24.807Z,11.70
2019-05-12T07:59:34.168Z,11.80
2019-05-12T08:00:28.752Z,11.80
2019-05-12T08:01:29.747Z,11.90
2019-05-12T08:02:32.064Z,11.90
2019-05-12T08:03:34.501Z,11.90
2019-05-12T08:04:40.122Z,12.00
2019-05-12T08:05:38.624Z,12.00
2019-05-12T08:06:41.882Z,12.00
2019-05-12T08:07:44.521Z,12.10
2019-05-12T08:08:50.572Z,12.00
2019-05-12T08:09:48.436Z,12.10
2019-05-12T08:10:51.515Z,12.00
2019-05-12T08:11:54.079Z,12.00
2019-05-12T08:12:59.571Z,12.10
2019-05-12T08:13:58.101Z,12.10
2019-05-12T08:15:04.655Z,12.00
2019-05-12T08:16:03.682Z,12.10
2019-05-12T08:17:11.006Z,12.10
2019-05-12T08:18:08.235Z,12.20
2019-05-12T08:19:17.261Z,12.30
2019-05-12T08:20:13.473Z,12.30
2019-05-12T08:21:14.785Z,12.40
2019-05-12T08:22:19.028Z,12.40
2019-05-12T08:23:18.704Z,12.40
2019-05-12T08:24:19.995Z,12.40
2019-05-12T08:25:24.763Z,12.40
2019-05-12T08:26:24.081Z,12.40
2019-05-12T08:27:25.140Z,12.30
2019-05-12T08:28:34.917Z,12.40
2019-05-12T08:29:29.221Z,12.40
2019-05-12T08:30:33.671Z,12.40
2019-05-12T08:31:40.526Z,12.40
2019-05-12T08:32:37.858Z,12.50
2019-05-12T08:33:38.869Z,12.50
2019-05-12T08:34:40.141Z,12.50
2019-05-12T08:35:43.670Z,12.60
2019-05-12T08:36:52.692Z,12.60
2019-05-12T08:37:47.138Z,12.60
2019-05-12T08:38:48.152Z,12.60
2019-05-12T08:39:53.258Z,12.60
2019-05-12T08:40:54.256Z,12.60
2019-05-12T08:41:55.000Z,12.60
2019-05-12T08:42:59.488Z,12.70
2019-05-12T08:43:58.948Z,12.70
2019-05-12T08:44:59.961Z,12.80
2019-05-12T08:46:09.995Z,12.80
2019-05-12T08:47:04.120Z,12.90
2019-05-12T08:48:10.331Z,13.00
2019-05-12T08:49:08.481Z,13.10
2019-05-12T08:50:09.619Z,13.10
2019-05-12T08:51:17.014Z,13.20
2019-05-12T08:52:14.195Z,13.20
2019-05-12T08:53:20.903Z,13.30
2019-05-12T08:54:18.263Z,13.20
2019-05-12T08:55:22.798Z,13.10
2019-05-12T08:56:24.026Z,13.10
2019-05-12T08:57:25.104Z,13.20
2019-05-12T08:58:33.469Z,13.20
2019-05-12T08:59:29.075Z,13.20
2019-05-12T09:00:39.425Z,13.10
2019-05-12T09:01:38.811Z,13.10
2019-05-12T09:02:46.077Z,13.10
2019-05-12T09:03:44.309Z,13.10
2019-05-12T09:04:51.515Z,13.10
2019-05-12T09:05:48.464Z,13.00
2019-05-12T09:06:50.104Z,13.00
2019-05-12T09:07:54.125Z,13.00
2019-05-12T09:08:55.244Z,13.00
2019-05-12T09:09:56.256Z,12.90
2019-05-12T09:10:57.285Z,12.90
2019-05-12T09:11:58.374Z,12.90
2019-05-12T09:12:59.506Z,12.90
2019-05-12T09:14:02.911Z,12.90
2019-05-12T09:15:08.317Z,13.00
2019-05-12T09:16:09.802Z,13.10
2019-05-12T09:17:11.000Z,13.20
2019-05-12T09:18:14.218Z,13.40
2019-05-12T09:19:16.696Z,13.40
2019-05-12T09:20:17.848Z,13.50
2019-05-12T09:21:23.717Z,13.60
2019-05-12T09:22:23.988Z,13.70
2019-05-12T09:23:24.799Z,13.80
2019-05-12T09:24:27.386Z,13.80
2019-05-12T09:25:28.616Z,13.80
2019-05-12T09:26:29.663Z,13.80
2019-05-12T09:27:30.768Z,13.80
2019-05-12T09:28:44.403Z,13.70
2019-05-12T09:29:34.699Z,13.70
2019-05-12T09:30:39.953Z,13.60
2019-05-12T09:31:38.657Z,13.60
2019-05-12T09:32:48.087Z,13.60
2019-05-12T09:33:44.524Z,13.50
2019-05-12T09:34:52.718Z,13.40
2019-05-12T09:35:48.433Z,13.30
2019-05-12T09:36:51.998Z,13.30
2019-05-12T09:37:53.522Z,13.20
2019-05-12T09:39:01.736Z,13.10
2019-05-12T09:39:57.621Z,13.10
2019-05-12T09:41:03.275Z,13.20
2019-05-12T09:42:03.766Z,13.20
2019-05-12T09:43:08.636Z,13.30
2019-05-12T09:44:07.387Z,13.30
2019-05-12T09:45:10.477Z,13.40
2019-05-12T09:46:11.324Z,13.40
2019-05-12T09:47:21.947Z,13.50
2019-05-12T09:48:15.248Z,13.60
2019-05-12T09:49:16.260Z,13.70
2019-05-12T09:50:20.225Z,13.80
2019-05-12T09:51:20.192Z,13.80
2019-05-12T09:52:23.256Z,13.70
2019-05-12T09:53:24.131Z,13.70
2019-05-12T09:54:34.004Z,13.60
2019-05-12T09:55:28.096Z,13.40
2019-05-12T09:56:29.114Z,13.30
2019-05-12T09:57:32.458Z,13.10
2019-05-12T09:58:33.702Z,13.10
2019-05-12T09:59:34.951Z,13.00
2019-05-12T10:00:37.485Z,13.00
2019-05-12T10:01:39.674Z,13.00
2019-05-12T10:02:43.112Z,13.10
2019-05-12T10:03:44.013Z,13.10
2019-05-12T10:04:45.004Z,13.10
2019-05-12T10:05:46.015Z,13.10
2019-05-12T10:06:47.037Z,13.10
2019-05-12T10:07:48.061Z,13.10
2019-05-12T10:08:49.064Z,13.10
2019-05-12T10:09:55.025Z,13.10
2019-05-12T10:10:53.560Z,13.20
2019-05-12T10:12:00.616Z,13.30
2019-05-12T10:12:57.732Z,13.40
2019-05-12T10:14:00.301Z,13.50
2019-05-12T10:15:04.313Z,13.60
2019-05-12T10:16:08.865Z,13.80
2019-05-12T10:17:08.401Z,13.80
2019-05-12T10:18:11.264Z,13.90
2019-05-12T10:19:14.236Z,13.90
2019-05-12T10:20:15.249Z,14.00
2019-05-12T10:21:17.571Z,14.00
2019-05-12T10:22:18.882Z,14.00
2019-05-12T10:23:24.141Z,13.90
2019-05-12T10:24:22.896Z,13.90
2019-05-12T10:25:28.370Z,13.90
2019-05-12T10:26:26.853Z,13.90
2019-05-12T10:27:31.918Z,13.80
2019-05-12T10:28:30.781Z,13.80
2019-05-12T10:29:32.436Z,13.80
2019-05-12T10:30:34.218Z,13.80
2019-05-12T10:31:39.124Z,13.70
2019-05-12T10:32:38.340Z,13.70
2019-05-12T10:33:39.349Z,13.80
2019-05-12T10:34:40.524Z,13.90
2019-05-12T10:35:43.693Z,14.00
2019-05-12T10:36:49.028Z,14.20
2019-05-12T10:37:48.523Z,14.20
2019-05-12T10:38:49.763Z,14.20
2019-05-12T10:39:50.771Z,14.30
2019-05-12T10:40:51.783Z,14.20
2019-05-12T10:41:54.591Z,14.30
2019-05-12T10:42:55.765Z,14.30
2019-05-12T10:43:57.871Z,14.20
2019-05-12T10:44:59.179Z,14.20
2019-05-12T10:46:00.192Z,14.20
2019-05-12T10:47:04.421Z,14.10
2019-05-12T10:48:05.446Z,14.20
2019-05-12T10:49:06.476Z,14.20
2019-05-12T10:50:08.088Z,14.20
2019-05-12T10:51:09.102Z,14.20
2019-05-12T10:52:10.128Z,14.10
2019-05-12T10:53:15.768Z,14.10
2019-05-12T10:54:15.664Z,14.20
2019-05-12T10:55:17.064Z,14.10
2019-05-12T10:56:18.172Z,13.90
2019-05-12T10:57:19.200Z,13.90
2019-05-12T10:58:20.218Z,13.90
2019-05-12T10:59:31.205Z,13.90
2019-05-12T11:00:25.034Z,13.90
2019-05-12T11:01:27.256Z,13.90
2019-05-12T11:02:30.440Z,13.90
2019-05-12T11:03:33.618Z,13.80
2019-05-12T11:04:38.972Z,13.90
2019-05-12T11:05:37.076Z,13.80
2019-05-12T11:06:39.638Z,13.90
2019-05-12T11:07:43.455Z,13.80
2019-05-12T11:08:47.376Z,13.80
2019-05-12T11:09:46.867Z,13.80
2019-05-12T11:10:50.320Z,13.70
2019-05-12T11:11:53.847Z,13.70
2019-05-12T11:12:53.721Z,13.60
2019-05-12T11:13:54.750Z,13.60
2019-05-12T11:14:55.764Z,13.60
2019-05-12T11:15:56.779Z,13.60
2019-05-12T11:17:02.269Z,13.50
2019-05-12T11:18:04.522Z,13.50
2019-05-12T11:19:10.240Z,13.50
2019-05-12T11:20:08.660Z,13.60
2019-05-12T11:21:09.672Z,13.50
2019-05-12T11:22:10.702Z,13.60
2019-05-12T11:23:13.680Z,13.70
2019-05-12T11:24:14.720Z,13.70
2019-05-12T11:25:15.769Z,13.70
2019-05-12T11:26:16.792Z,13.70
2019-05-12T11:27:17.812Z,13.80
2019-05-12T11:28:18.863Z,13.80
2019-05-12T11:29:20.299Z,14.00
2019-05-12T11:30:23.664Z,14.10
2019-05-12T11:31:24.478Z,14.20
2019-05-12T11:32:28.822Z,14.20
2019-05-12T11:33:28.743Z,14.30
2019-05-12T11:34:29.764Z,14.20
2019-05-12T11:35:30.772Z,14.30
2019-05-12T11:36:31.800Z,14.30
2019-05-12T11:37:33.839Z,14.30
2019-05-12T11:38:40.832Z,14.40
2019-05-12T11:39:45.273Z,14.40
2019-05-12T11:40:44.776Z,14.60
2019-05-12T11:41:45.790Z,14.60
2019-05-12T11:42:54.557Z,14.70
2019-05-12T11:43:49.942Z,14.70
2019-05-12T11:44:51.545Z,14.70
2019-05-12T11:45:53.474Z,14.60
2019-05-12T11:46:54.879Z,14.60
2019-05-12T11:47:56.844Z,14.60
2019-05-12T11:48:58.827Z,14.60
2019-05-12T11:50:07.455Z,14.50
2019-05-12T11:51:03.927Z,14.50
2019-05-12T11:52:10.909Z,14.50
2019-05-12T11:53:08.191Z,14.50
2019-05-12T11:54:10.813Z,14.50
2019-05-12T11:55:13.495Z,14.50
2019-05-12T11:56:14.631Z,14.50
2019-05-12T11:57:20.130Z,14.40
2019-05-12T11:58:18.571Z,14.40
2019-05-12T11:59:19.579Z,14.40
2019-05-12T12:00:24.208Z,14.40
2019-05-12T12:01:25.908Z,14.40
2019-05-12T12:02:30.403Z,14.40
2019-05-12T12:03:29.872Z,14.40
2019-05-12T12:04:45.745Z,14.50
2019-05-12T12:05:46.794Z,14.50
2019-05-12T12:06:47.879Z,14.70
2019-05-12T12:07:52.642Z,14.80
2019-05-12T12:08:53.680Z,14.90
2019-05-12T12:09:59.169Z,14.90
2019-05-12T12:10:57.651Z,15.00
2019-05-12T12:12:03.317Z,15.20
2019-05-12T12:13:03.511Z,15.20
2019-05-12T12:14:06.430Z,15.30
2019-05-12T12:15:07.717Z,15.40
2019-05-12T12:16:11.203Z,15.60
2019-05-12T12:17:13.522Z,15.70
2019-05-12T12:18:15.429Z,15.80
2019-05-12T12:19:16.684Z,15.90
2019-05-12T12:20:22.623Z,15.90
2019-05-12T12:21:20.713Z,16.00
2019-05-12T12:22:26.429Z,16.00
2019-05-12T12:23:24.646Z,16.10
2019-05-12T12:24:31.170Z,16.00
2019-05-12T12:25:30.468Z,16.00
2019-05-12T12:26:34.327Z,15.90
2019-05-12T12:27:34.421Z,15.90
2019-05-12T12:28:35.464Z,15.80
2019-05-12T12:29:36.492Z,15.70
2019-05-12T12:30:37.605Z,15.70
2019-05-12T12:31:48.832Z,15.60
2019-05-12T12:32:50.461Z,15.50
2019-05-12T12:33:53.635Z,15.40
2019-05-12T12:34:54.775Z,15.30
2019-05-12T12:35:59.189Z,15.30
2019-05-12T12:36:58.687Z,15.30
2019-05-12T12:37:59.712Z,15.30
2019-05-12T12:39:00.723Z,15.40
2019-05-12T12:40:04.252Z,15.40
2019-05-12T12:41:05.551Z,15.50
2019-05-12T12:42:06.558Z,15.60
2019-05-12T12:43:07.584Z,15.80
2019-05-12T12:44:08.592Z,16.00
2019-05-12T12:45:15.284Z,16.10
2019-05-12T12:46:21.602Z,16.30
2019-05-12T12:47:21.109Z,16.50
2019-05-12T12:48:25.488Z,16.70
2019-05-12T12:49:25.053Z,16.80
2019-05-12T12:50:30.357Z,17.00
2019-05-12T12:51:28.993Z,17.10
2019-05-12T12:52:30.000Z,17.20
2019-05-12T12:53:31.030Z,17.30
2019-05-12T12:54:33.271Z,17.40
2019-05-12T12:55:38.095Z,17.50
2019-05-12T12:56:37.678Z,17.70
2019-05-12T12:57:40.312Z,17.80
2019-05-12T12:58:43.447Z,17.90
2019-05-12T12:59:51.127Z,17.90
2019-05-12T13:00:53.730Z,17.80
2019-05-12T13:01:51.015Z,17.70
2019-05-12T13:02:52.032Z,17.60
2019-05-12T13:03:53.706Z,17.60
2019-05-12T13:04:54.928Z,17.60
2019-05-12T13:05:55.942Z,17.50
2019-05-12T13:06:56.986Z,17.50
2019-05-12T13:07:58.005Z,17.40
2019-05-12T13:08:59.019Z,17.30
2019-05-12T13:10:04.611Z,17.20
2019-05-12T13:11:04.346Z,17.10
2019-05-12T13:12:14.153Z,17.00
2019-05-12T13:13:08.591Z,16.90
2019-05-12T13:14:09.609Z,16.90
2019-05-12T13:15:11.423Z,17.00
2019-05-12T13:16:13.303Z,17.10
2019-05-12T13:17:14.448Z,17.20
2019-05-12T13:18:24.049Z,17.40